Terminal Aerodrome Forecast
Issued by NWS

Home | Current Version | Previous Version | Text Only | Print | Product List | Glossary On
Versions: 1 2 3 4 5 6 7 8 9 10 11 12 13
000
FTUS41 KCAR 262327
TAFHUL
TAF
KHUL 262327Z 2700/2724 20005KT P6SM SCT150
     FM270900 20007KT P6SM VCSH BKN060
     FM271600 20009KT 5SM -SHRA OVC015
     FM272200 21007KT 3SM -SHRA VCTS SCT010 BKN035CB=

USA.gov is the U.S. government's official web portal to all federal, state and local government web resources and services.